»·PEaware :: ASA877 KSFO-KSNA

ASA877 :: KSFO-KSNA

FLIGHT INFORMATION

Flight Status: Arrived
Operator:
Alaska Airlines
More flights by this operator :: More flights under this callsign
Pilot: Anthony T. (15846)
Aircraft: BOEING 737-800
(B738)
More flights by this aircraft type
Origin: KSFO San Francisco Intl
United States
Destination: KSNA John Wayne-Orange Co
United States
More flights between these airports :: More routes between these airports
Route: OFFSH1 MCKEY TILLT TILLT2
File this flight plan on PilotEdge
Remarks:
Altitude:
(Current/Filed)
31,000ft
Speed:
(Current/Filed)
315kts
Departed: 05-May-18 02:08 PM
Arrived: 05-May-18 03:24 PM
Distance/Time
Traveled:
323nm/1:15
Distance/Time
To Go:
Arrived

Flight Plot

Page will automatically refresh every two minutes.

Flight plan parsing failed; only flown route is shown


Map Options




Map Legend


Flown Route
Filed Route
Departure Airport
Arrival Airport
Navaid (VOR, NDB)
Fix

Horizontal Profiles

Position Reports

Time Latitude Longitude Heading Altitude Ground
Speed
05-May-18 13:59 37.611683 -122.385970 34 31ft 0kts
05-May-18 14:00 37.611683 -122.385970 34 31ft 0kts
05-May-18 14:01 37.611683 -122.385970 34 31ft 0kts
05-May-18 14:02 37.611683 -122.385970 34 31ft 0kts
05-May-18 14:03 37.611683 -122.385970 34 31ft 0kts
05-May-18 14:04 37.611683 -122.385971 34 31ft 0kts
05-May-18 14:05 37.611462 -122.386652 131 31ft 0kts
05-May-18 14:06 37.610143 -122.384066 189 31ft 3kts
05-May-18 14:07 37.611064 -122.380855 25 30ft 75kts
05-May-18 14:08 37.660785 -122.366058 337 2362ft 243kts
05-May-18 14:09 37.670119 -122.436022 228 5702ft 255kts
05-May-18 14:10 37.629542 -122.509951 238 9795ft 270kts
05-May-18 14:11 37.592890 -122.596308 239 14288ft 293kts
05-May-18 14:12 37.547616 -122.691192 215 17167ft 349kts
05-May-18 14:13 37.451815 -122.698991 171 19674ft 366kts
05-May-18 14:14 37.350783 -122.673647 171 22341ft 382kts
05-May-18 14:15 37.245001 -122.645906 171 25049ft 398kts
05-May-18 14:16 37.134857 -122.617008 172 27745ft 415kts
05-May-18 14:17 37.020854 -122.587195 172 30429ft 424kts
05-May-18 14:18 36.900499 -122.555897 172 31152ft 470kts
05-May-18 14:19 36.772775 -122.522659 172 31146ft 469kts
05-May-18 14:20 36.645663 -122.489745 172 31142ft 469kts
05-May-18 14:21 36.518891 -122.457027 172 31141ft 469kts
05-May-18 14:22 36.399316 -122.392467 139 31146ft 499kts
05-May-18 14:23 36.307382 -122.264014 135 31134ft 501kts
05-May-18 14:24 36.217244 -122.132975 135 31134ft 501kts
05-May-18 14:25 36.126958 -122.002098 135 31134ft 501kts
05-May-18 14:26 36.036677 -121.871732 135 31135ft 501kts
05-May-18 14:27 35.945944 -121.741217 135 31135ft 501kts
05-May-18 14:28 35.855327 -121.611374 135 31131ft 502kts
05-May-18 14:29 35.764346 -121.481504 135 31101ft 503kts
05-May-18 14:30 35.673164 -121.351844 135 31088ft 503kts
05-May-18 14:31 35.581656 -121.222213 135 31081ft 503kts
05-May-18 14:32 35.491226 -121.091666 126 31053ft 510kts
05-May-18 14:33 35.408237 -120.953746 140 31104ft 502kts
05-May-18 14:34 35.305086 -120.840394 142 31119ft 500kts
05-May-18 14:35 35.201254 -120.728597 142 31119ft 500kts
05-May-18 14:36 35.100857 -120.620903 142 31122ft 500kts
05-May-18 14:37 34.992702 -120.519171 149 29974ft 491kts
05-May-18 14:38 34.881248 -120.428708 148 27982ft 478kts
05-May-18 14:39 34.772646 -120.341038 149 26199ft 478kts
05-May-18 14:40 34.662309 -120.252326 149 26095ft 484kts
05-May-18 14:41 34.550660 -120.163018 149 26100ft 484kts
05-May-18 14:42 34.438645 -120.073712 149 26092ft 483kts
05-May-18 14:44 34.326655 -119.984718 149 26082ft 483kts
05-May-18 14:45 34.214307 -119.895728 149 26082ft 483kts
05-May-18 14:46 34.102425 -119.807123 146 26074ft 484kts
05-May-18 14:47 34.022243 -119.679216 123 24132ft 475kts
05-May-18 14:48 33.954896 -119.545841 123 22124ft 459kts
05-May-18 14:49 33.890086 -119.416713 122 20995ft 452kts
05-May-18 14:50 33.827481 -119.289685 122 18966ft 435kts
05-May-18 14:51 33.770046 -119.173439 122 17070ft 421kts
05-May-18 14:52 33.711320 -119.054966 122 15074ft 408kts
05-May-18 14:53 33.654143 -118.940015 122 13068ft 394kts
05-May-18 14:54 33.598950 -118.829331 121 11163ft 383kts
05-May-18 14:55 33.562189 -118.711865 103 9691ft 365kts
05-May-18 14:56 33.543095 -118.597223 102 9120ft 349kts
05-May-18 14:57 33.524580 -118.483496 102 9110ft 348kts
05-May-18 14:58 33.519242 -118.367600 92 7217ft 343kts
05-May-18 14:59 33.542010 -118.259447 70 5574ft 339kts
05-May-18 15:00 33.578670 -118.160082 58 5022ft 334kts
05-May-18 15:01 33.629321 -118.067283 57 5009ft 333kts
05-May-18 15:02 33.672580 -117.989322 56 5015ft 247kts
05-May-18 15:03 33.714342 -117.936349 31 5021ft 230kts
05-May-18 15:04 33.762072 -117.900398 31 5024ft 202kts
05-May-18 15:05 33.808405 -117.864983 31 5018ft 200kts
05-May-18 15:06 33.854048 -117.829556 31 5012ft 197kts
05-May-18 15:07 33.899244 -117.794504 31 5003ft 191kts
05-May-18 15:08 33.943627 -117.761087 31 5015ft 199kts
05-May-18 15:09 33.989766 -117.724831 31 5025ft 200kts
05-May-18 15:10 34.035742 -117.688657 35 5033ft 201kts
05-May-18 15:11 34.043574 -117.625777 91 4071ft 195kts
05-May-18 15:12 34.039800 -117.561392 79 4016ft 199kts
05-May-18 15:13 34.041897 -117.505396 152 4029ft 199kts
05-May-18 15:14 33.996951 -117.536665 230 4029ft 215kts
05-May-18 15:15 33.958955 -117.591570 230 4024ft 213kts
05-May-18 15:16 33.923325 -117.642918 230 4017ft 212kts
05-May-18 15:17 33.888702 -117.692562 230 4014ft 190kts
05-May-18 15:18 33.854103 -117.735238 224 3564ft 171kts
05-May-18 15:19 33.822774 -117.770109 223 3020ft 155kts
05-May-18 15:20 33.787314 -117.797987 209 2408ft 156kts
05-May-18 15:21 33.751355 -117.820823 209 1633ft 152kts
05-May-18 15:22 33.714923 -117.843692 210 880ft 148kts
05-May-18 15:23 33.679886 -117.866202 208 69ft 135kts
05-May-18 15:24 33.669227 -117.871668 131 64ft 1kts

Navigation Log

Ident Type
Flight plan parsing failed, navigation log unavailable